createdAt,value
2022-10-09T00:00:17.619Z,77591.09
2022-10-09T00:01:51.175Z,77591.09
2022-10-09T00:03:24.495Z,77591.09
2022-10-09T00:04:58.088Z,77597.03
2022-10-09T00:06:36.174Z,77589.13
2022-10-09T00:08:10.237Z,77604.94
2022-10-09T00:09:43.678Z,77608.91
2022-10-09T00:11:20.984Z,77602.97
2022-10-09T00:12:54.394Z,77608.91
2022-10-09T00:14:28.251Z,77616.81
2022-10-09T00:16:07.734Z,77624.72
2022-10-09T00:17:41.510Z,77620.78
2022-10-09T00:19:14.885Z,77620.78
2022-10-09T00:20:48.725Z,77632.63
2022-10-09T00:22:21.998Z,77630.66
2022-10-09T00:23:58.966Z,77630.66
2022-10-09T00:25:32.949Z,77636.59
2022-10-09T00:27:06.191Z,77644.50
2022-10-09T00:28:39.761Z,77650.44
2022-10-09T00:30:13.607Z,77648.47
2022-10-09T00:31:47.259Z,77656.38
2022-10-09T00:33:21.541Z,77707.81
2022-10-09T00:34:54.863Z,77664.28
2022-10-09T00:36:28.490Z,77666.25
2022-10-09T00:38:02.237Z,77668.25
2022-10-09T00:39:35.859Z,77666.25
2022-10-09T00:41:09.752Z,77656.38
2022-10-09T00:42:46.029Z,77656.38
2022-10-09T00:44:53.064Z,77648.47
2022-10-09T00:46:42.670Z,77640.56
2022-10-09T00:48:17.991Z,77648.47
2022-10-09T00:49:55.231Z,77652.41
2022-10-09T00:51:31.104Z,77660.34
2022-10-09T00:53:05.072Z,77660.34
2022-10-09T00:54:41.742Z,77751.31
2022-10-09T00:56:15.276Z,77656.38
2022-10-09T00:57:48.716Z,77656.38
2022-10-09T00:59:23.349Z,77686.03
2022-10-09T01:00:56.904Z,77656.38
2022-10-09T01:02:30.729Z,77648.47
2022-10-09T01:04:04.408Z,77654.41
2022-10-09T01:05:46.657Z,77648.47
2022-10-09T01:07:39.294Z,77648.47
2022-10-09T01:09:30.113Z,77648.47
2022-10-09T01:11:47.142Z,77650.44
2022-10-09T01:13:39.478Z,77652.41
2022-10-09T01:15:20.505Z,77662.31
2022-10-09T01:17:08.230Z,77670.22
2022-10-09T01:19:07.323Z,77662.31
2022-10-09T01:20:55.055Z,77664.28
2022-10-09T01:22:38.725Z,77670.22
2022-10-09T01:24:30.750Z,77664.28
2022-10-09T01:26:24.901Z,77670.22
2022-10-09T01:27:58.920Z,77664.28
2022-10-09T01:29:58.817Z,77668.25
2022-10-09T01:31:37.838Z,77666.25
2022-10-09T01:33:12.133Z,77668.25
2022-10-09T01:34:48.603Z,77660.34
2022-10-09T01:36:23.931Z,77658.34
2022-10-09T01:37:57.747Z,77668.25
2022-10-09T01:39:32.447Z,77662.31
2022-10-09T01:41:08.597Z,77660.34
2022-10-09T01:42:42.208Z,77660.34
2022-10-09T01:44:21.549Z,77674.19
2022-10-09T01:46:19.260Z,77670.22
2022-10-09T01:47:52.677Z,77660.34
2022-10-09T01:49:36.074Z,77672.19
2022-10-09T01:51:09.373Z,77670.22
2022-10-09T01:52:56.195Z,77672.19
2022-10-09T01:54:38.984Z,77676.16
2022-10-09T01:56:19.674Z,77678.13
2022-10-09T01:58:17.236Z,77676.16
2022-10-09T01:59:52.335Z,77723.63
2022-10-09T02:01:30.054Z,77668.25
2022-10-09T02:03:07.131Z,77672.19
2022-10-09T02:04:44.226Z,77656.38
2022-10-09T02:06:19.618Z,77664.28
2022-10-09T02:07:54.054Z,77660.34
2022-10-09T02:09:29.683Z,77664.28
2022-10-09T02:11:04.592Z,77664.28
2022-10-09T02:12:46.253Z,77676.16
2022-10-09T02:14:19.625Z,77680.09
2022-10-09T02:16:10.838Z,77684.06
2022-10-09T02:17:48.973Z,77690.00
2022-10-09T02:19:32.916Z,77688.03
2022-10-09T02:21:32.257Z,77691.97
2022-10-09T02:23:09.018Z,77761.22
2022-10-09T02:24:43.671Z,77678.13
2022-10-09T02:26:18.492Z,77674.19
2022-10-09T02:27:52.067Z,77674.19
2022-10-09T02:29:26.180Z,77668.25
2022-10-09T02:31:12.944Z,77656.38
2022-10-09T02:32:46.811Z,77654.41
2022-10-09T02:34:21.607Z,77658.34
2022-10-09T02:35:54.999Z,77664.28
2022-10-09T02:37:28.551Z,77674.19
2022-10-09T02:39:02.744Z,77695.94
2022-10-09T02:40:36.353Z,77678.13
2022-10-09T02:42:10.145Z,77672.19
2022-10-09T02:43:43.291Z,77672.19
2022-10-09T02:45:16.574Z,77674.19
2022-10-09T02:46:50.102Z,77670.22
2022-10-09T02:48:23.593Z,77668.25
2022-10-09T02:50:00.346Z,77664.28
2022-10-09T02:51:34.262Z,77672.19
2022-10-09T02:53:07.746Z,77666.25
2022-10-09T02:54:41.374Z,77664.28
2022-10-09T02:56:15.033Z,77664.28
2022-10-09T02:57:48.102Z,77664.28
2022-10-09T02:59:21.573Z,77662.31
2022-10-09T03:00:54.852Z,77660.34
2022-10-09T03:02:28.343Z,77654.41
2022-10-09T03:04:02.345Z,77699.88
2022-10-09T03:05:36.298Z,77644.50
2022-10-09T03:07:09.754Z,77650.44
2022-10-09T03:08:46.326Z,77644.50
2022-10-09T03:10:21.365Z,77634.63
2022-10-09T03:11:55.038Z,77636.59
2022-10-09T03:13:28.497Z,77585.16
2022-10-09T03:15:01.948Z,77533.75
2022-10-09T03:16:35.547Z,77559.47
2022-10-09T03:18:09.255Z,77573.31
2022-10-09T03:19:42.780Z,77575.28
2022-10-09T03:21:25.141Z,77581.22
2022-10-09T03:22:58.804Z,77581.22
2022-10-09T03:24:32.404Z,77581.22
2022-10-09T03:26:11.137Z,77581.22
2022-10-09T03:27:44.489Z,77585.16
2022-10-09T03:29:18.010Z,77585.16
2022-10-09T03:30:51.850Z,77581.22
2022-10-09T03:32:25.660Z,77577.25
2022-10-09T03:33:59.255Z,77577.25
2022-10-09T03:35:32.707Z,77555.50
2022-10-09T03:37:06.572Z,77640.56
2022-10-09T03:38:41.215Z,77565.38
2022-10-09T03:40:14.723Z,77553.53
2022-10-09T03:41:47.975Z,77577.25
2022-10-09T03:43:21.997Z,77537.69
2022-10-09T03:44:55.276Z,77498.16
2022-10-09T03:46:28.885Z,77521.88
2022-10-09T03:48:02.536Z,77521.88
2022-10-09T03:49:36.325Z,77601.00
2022-10-09T03:51:10.528Z,77521.88
2022-10-09T03:52:44.201Z,77519.91
2022-10-09T03:54:17.315Z,77512.00
2022-10-09T03:55:51.258Z,77523.84
2022-10-09T03:57:24.226Z,77502.09
2022-10-09T03:58:57.626Z,77506.06
2022-10-09T04:00:31.218Z,77513.97
2022-10-09T04:02:05.174Z,77504.06
2022-10-09T04:03:38.642Z,77504.06
2022-10-09T04:05:15.068Z,77498.16
2022-10-09T04:06:48.374Z,77512.00
2022-10-09T04:08:21.751Z,77498.16
2022-10-09T04:09:55.034Z,77490.22
2022-10-09T04:11:28.420Z,77500.13
2022-10-09T04:13:01.870Z,77490.22
2022-10-09T04:14:34.917Z,77498.16
2022-10-09T04:16:13.064Z,77482.31
2022-10-09T04:17:46.462Z,77474.41
2022-10-09T04:19:19.786Z,77456.59
2022-10-09T04:20:55.927Z,77452.66
2022-10-09T04:22:29.149Z,77454.63
2022-10-09T04:24:04.066Z,77442.75
2022-10-09T04:25:37.593Z,77450.69
2022-10-09T04:27:11.615Z,77434.84
2022-10-09T04:28:45.419Z,77432.88
2022-10-09T04:30:18.294Z,77424.97
2022-10-09T04:31:51.155Z,77411.13
2022-10-09T04:33:25.625Z,77407.16
2022-10-09T04:34:58.738Z,77405.19
2022-10-09T04:36:32.262Z,77403.22
2022-10-09T04:38:05.568Z,77405.19
2022-10-09T04:39:39.147Z,77415.06
2022-10-09T04:41:12.652Z,77395.28
2022-10-09T04:42:46.158Z,77385.41
2022-10-09T04:44:19.463Z,77385.41
2022-10-09T04:45:53.032Z,77379.47
2022-10-09T04:47:26.341Z,77365.63
2022-10-09T04:48:59.923Z,77397.28
2022-10-09T04:50:33.032Z,77359.69
2022-10-09T04:52:10.098Z,77345.84
2022-10-09T04:53:45.269Z,77415.06
2022-10-09T04:55:18.539Z,77330.03
2022-10-09T04:56:51.807Z,77332.00
2022-10-09T04:58:25.295Z,77335.97
2022-10-09T04:59:58.471Z,77314.22
2022-10-09T05:01:37.225Z,77298.38
2022-10-09T05:03:13.254Z,77290.47
2022-10-09T05:04:47.668Z,77288.50
2022-10-09T05:06:22.059Z,77280.59
2022-10-09T05:07:55.600Z,77272.69
2022-10-09T05:09:29.174Z,77276.63
2022-10-09T05:11:04.944Z,77256.84
2022-10-09T05:12:38.568Z,77254.88
2022-10-09T05:14:12.322Z,77258.84
2022-10-09T05:15:45.701Z,77243.00
2022-10-09T05:17:23.196Z,77225.22
2022-10-09T05:18:59.736Z,77193.56
2022-10-09T05:20:32.963Z,77161.94
2022-10-09T05:22:06.562Z,77118.41
2022-10-09T05:23:40.567Z,77076.88
2022-10-09T05:25:14.604Z,77051.19
2022-10-09T05:26:48.382Z,77041.28
2022-10-09T05:28:21.797Z,77047.22
2022-10-09T05:29:55.483Z,76983.94
2022-10-09T05:31:30.280Z,76916.69
2022-10-09T05:33:03.778Z,76896.94
2022-10-09T05:34:36.965Z,76902.84
2022-10-09T05:36:10.524Z,76847.50
2022-10-09T05:37:49.815Z,76831.66
2022-10-09T05:39:23.229Z,76817.81
2022-10-09T05:40:58.941Z,76837.59
2022-10-09T05:42:32.430Z,76843.53
2022-10-09T05:44:06.365Z,76849.47
2022-10-09T05:45:39.933Z,76728.84
2022-10-09T05:47:21.177Z,76667.53
2022-10-09T05:49:00.886Z,76612.16
2022-10-09T05:50:34.131Z,76588.44
2022-10-09T05:52:07.871Z,76499.47
2022-10-09T05:53:43.361Z,76396.63
2022-10-09T05:55:17.462Z,76331.38
2022-10-09T05:56:51.063Z,76272.06
2022-10-09T05:58:24.583Z,76276.03
2022-10-09T05:59:57.773Z,76196.94
2022-10-09T06:01:33.870Z,76147.50
2022-10-09T06:03:07.118Z,75983.41
2022-10-09T06:04:40.752Z,75916.19
2022-10-09T06:06:14.084Z,75967.59
2022-10-09T06:07:48.366Z,75945.84
2022-10-09T06:09:24.543Z,75957.69
2022-10-09T06:10:57.765Z,76001.19
2022-10-09T06:12:31.438Z,76268.13
2022-10-09T06:14:07.885Z,76339.28
2022-10-09T06:15:41.090Z,76432.22
2022-10-09T06:17:14.476Z,76503.41
2022-10-09T06:18:49.507Z,76527.13
2022-10-09T06:20:23.149Z,76461.88
2022-10-09T06:21:56.469Z,76428.28
2022-10-09T06:23:32.026Z,76422.34
2022-10-09T06:25:05.486Z,76382.78
2022-10-09T06:26:39.133Z,76335.34
2022-10-09T06:28:12.522Z,76406.53
2022-10-09T06:29:45.992Z,76465.84
2022-10-09T06:31:21.895Z,76497.47
2022-10-09T06:32:55.246Z,76436.19
2022-10-09T06:34:31.381Z,76406.53
2022-10-09T06:36:10.643Z,76418.38
2022-10-09T06:37:43.997Z,76351.16
2022-10-09T06:39:18.127Z,76382.78
2022-10-09T06:40:51.598Z,76351.16
2022-10-09T06:42:24.716Z,76370.94
2022-10-09T06:44:06.690Z,76343.25
2022-10-09T06:45:40.229Z,76406.53
2022-10-09T06:47:13.556Z,76400.59
2022-10-09T06:48:47.345Z,76402.56
2022-10-09T06:50:20.734Z,76430.25
2022-10-09T06:51:54.069Z,76505.38
2022-10-09T06:53:27.310Z,76572.63
2022-10-09T06:55:00.641Z,76495.50
2022-10-09T06:56:33.960Z,76537.03
2022-10-09T06:58:07.273Z,76457.94
2022-10-09T06:59:40.369Z,76477.72
2022-10-09T07:01:24.995Z,76467.81
2022-10-09T07:02:58.538Z,76430.25
2022-10-09T07:04:32.280Z,76459.91
2022-10-09T07:06:18.900Z,76398.63
2022-10-09T07:07:52.799Z,76432.22
2022-10-09T07:09:26.223Z,76452.00
2022-10-09T07:10:59.881Z,76453.97
2022-10-09T07:12:35.921Z,76424.31
2022-10-09T07:14:11.402Z,76453.97
2022-10-09T07:15:47.836Z,76406.53
2022-10-09T07:17:21.325Z,76345.22
2022-10-09T07:18:55.643Z,76357.09
2022-10-09T07:20:29.486Z,76376.88
2022-10-09T07:22:03.230Z,76357.09
2022-10-09T07:23:37.620Z,76382.78
2022-10-09T07:25:12.217Z,76366.97
2022-10-09T07:26:46.981Z,76347.19
2022-10-09T07:28:20.552Z,76386.75
2022-10-09T07:29:54.323Z,76408.50
2022-10-09T07:31:27.780Z,76347.19
2022-10-09T07:33:01.619Z,76289.88
2022-10-09T07:34:35.139Z,76327.44
2022-10-09T07:36:09.753Z,76307.66
2022-10-09T07:37:46.233Z,76291.84
2022-10-09T07:39:20.037Z,76295.78
2022-10-09T07:40:54.374Z,76301.72
2022-10-09T07:42:27.740Z,76283.94
2022-10-09T07:44:01.735Z,76281.97
2022-10-09T07:45:36.158Z,76295.78
2022-10-09T07:47:09.286Z,76355.13
2022-10-09T07:48:42.321Z,76299.75
2022-10-09T07:50:16.049Z,76283.94
2022-10-09T07:51:49.717Z,76287.88
2022-10-09T07:53:23.792Z,76311.63
2022-10-09T07:54:57.150Z,76315.56
2022-10-09T07:56:32.891Z,76323.47
2022-10-09T07:58:06.716Z,76335.34
2022-10-09T07:59:40.225Z,76331.38
2022-10-09T08:01:18.902Z,76339.28
2022-10-09T08:02:53.823Z,76327.44
2022-10-09T08:04:27.707Z,76311.63
2022-10-09T08:06:01.146Z,76301.72
2022-10-09T08:07:35.242Z,76268.13
2022-10-09T08:09:09.603Z,76268.13
2022-10-09T08:10:43.391Z,76272.06
2022-10-09T08:12:16.656Z,76252.28
2022-10-09T08:13:51.500Z,76319.53
2022-10-09T08:15:25.695Z,76191.00
2022-10-09T08:16:59.098Z,76157.38
2022-10-09T08:18:32.893Z,76153.44
2022-10-09T08:20:07.212Z,76137.63
2022-10-09T08:21:41.007Z,76131.69
2022-10-09T08:23:14.209Z,76157.38
2022-10-09T08:24:47.295Z,76161.34
2022-10-09T08:26:22.574Z,76157.38
2022-10-09T08:27:56.654Z,76105.97
2022-10-09T08:29:30.730Z,76109.94
2022-10-09T08:31:14.488Z,76084.22
2022-10-09T08:32:48.755Z,76066.44
2022-10-09T08:34:22.570Z,76054.56
2022-10-09T08:36:07.121Z,76074.34
2022-10-09T08:37:41.129Z,76086.22
2022-10-09T08:39:15.091Z,76050.63
2022-10-09T08:41:17.475Z,76050.63
2022-10-09T08:43:00.746Z,76046.66
2022-10-09T08:44:37.346Z,76036.78
2022-10-09T08:46:32.914Z,76024.91
2022-10-09T08:48:14.478Z,76011.09
2022-10-09T08:49:59.922Z,75999.22
2022-10-09T08:51:38.496Z,75969.56
2022-10-09T08:53:40.825Z,75932.00
2022-10-09T08:55:26.395Z,75912.22
2022-10-09T08:57:03.892Z,75888.50
2022-10-09T08:58:41.351Z,75892.47
2022-10-09T09:00:22.647Z,75866.75
2022-10-09T09:02:08.432Z,75856.88
2022-10-09T09:04:03.111Z,75864.78
2022-10-09T09:05:55.289Z,75900.38
2022-10-09T09:07:54.412Z,75892.47
2022-10-09T09:09:36.380Z,75926.06
2022-10-09T09:11:20.649Z,75926.06
2022-10-09T09:13:07.502Z,75935.94
2022-10-09T09:15:18.623Z,75975.50
2022-10-09T09:17:07.579Z,76028.88
2022-10-09T09:19:10.328Z,76094.13
2022-10-09T09:20:55.441Z,76129.72
2022-10-09T09:22:29.173Z,76145.53
2022-10-09T09:24:10.643Z,76155.41
2022-10-09T09:25:46.691Z,76181.13
2022-10-09T09:27:27.980Z,76094.13
2022-10-09T09:29:05.771Z,76084.22
2022-10-09T09:30:48.359Z,76096.09
2022-10-09T09:32:24.977Z,76111.91
2022-10-09T09:33:58.557Z,76143.56
2022-10-09T09:35:49.917Z,76165.31
2022-10-09T09:37:24.309Z,76159.38
2022-10-09T09:40:51.282Z,76151.47
2022-10-09T09:42:24.746Z,76161.34
2022-10-09T09:43:58.240Z,76119.81
2022-10-09T09:45:32.060Z,76074.34
2022-10-09T09:47:10.404Z,76080.28
2022-10-09T09:48:47.755Z,76090.16
2022-10-09T09:50:50.474Z,76102.03
2022-10-09T09:52:37.029Z,76109.94
2022-10-09T09:54:22.442Z,76145.53
2022-10-09T09:55:56.770Z,76157.38
2022-10-09T09:57:41.859Z,76161.34
2022-10-09T09:59:37.979Z,76135.63
2022-10-09T10:01:37.569Z,76050.63
2022-10-09T10:03:16.928Z,75989.34
2022-10-09T10:04:58.017Z,75947.81
2022-10-09T10:06:42.143Z,75928.03
2022-10-09T10:08:34.327Z,76013.06
2022-10-09T10:10:15.134Z,76084.22
2022-10-09T10:12:01.156Z,76111.91
2022-10-09T10:13:41.407Z,76145.53
2022-10-09T10:15:23.585Z,76115.88
2022-10-09T10:16:59.587Z,76074.34
2022-10-09T10:18:40.118Z,76100.06
2022-10-09T10:20:17.803Z,76078.31
2022-10-09T10:21:57.212Z,76070.41
2022-10-09T10:23:41.265Z,76070.41
2022-10-09T10:25:19.186Z,76042.72
2022-10-09T10:26:58.607Z,76003.16
2022-10-09T10:28:41.531Z,76003.16
2022-10-09T10:30:18.217Z,75999.22
2022-10-09T10:32:00.432Z,76028.88
2022-10-09T10:33:36.762Z,76022.94
2022-10-09T10:35:17.839Z,76011.09
2022-10-09T10:37:18.122Z,76007.13
2022-10-09T10:39:03.196Z,76020.97
2022-10-09T10:40:43.264Z,76026.91
2022-10-09T10:42:28.526Z,76060.50
2022-10-09T10:44:10.084Z,76131.69
2022-10-09T10:46:21.151Z,76125.75
2022-10-09T10:47:57.709Z,76133.66
2022-10-09T10:49:33.966Z,76117.84
2022-10-09T10:51:28.248Z,76125.75
2022-10-09T10:53:17.767Z,76105.97
2022-10-09T10:55:16.484Z,76092.16
2022-10-09T10:57:12.837Z,76058.53
2022-10-09T10:59:19.523Z,76022.94
2022-10-09T11:01:16.240Z,76001.19
2022-10-09T11:03:25.374Z,75997.25
2022-10-09T11:05:16.726Z,75999.22
2022-10-09T11:07:07.741Z,76011.09
2022-10-09T11:08:55.899Z,76013.06
2022-10-09T11:10:44.386Z,76009.09
2022-10-09T11:12:47.240Z,76015.03
2022-10-09T11:14:34.982Z,76026.91
2022-10-09T11:16:43.344Z,76032.84
2022-10-09T11:18:20.073Z,76034.81
2022-10-09T11:20:31.852Z,76038.75
2022-10-09T11:22:25.189Z,76019.00
2022-10-09T11:24:37.357Z,76015.03
2022-10-09T11:26:10.557Z,76026.91
2022-10-09T11:27:59.875Z,76026.91
2022-10-09T11:29:56.350Z,76040.75
2022-10-09T11:31:40.659Z,76042.72
2022-10-09T11:33:46.232Z,76109.94
2022-10-09T11:35:29.194Z,76060.50
2022-10-09T11:37:07.458Z,76078.31
2022-10-09T11:38:52.040Z,76050.63
2022-10-09T11:40:29.678Z,76076.31
2022-10-09T11:42:03.717Z,76102.03
2022-10-09T11:43:37.316Z,76102.03
2022-10-09T11:45:42.722Z,76084.22
2022-10-09T11:47:32.286Z,76078.31
2022-10-09T11:49:27.134Z,76074.34
2022-10-09T11:51:12.063Z,76072.38
2022-10-09T11:53:04.491Z,76100.06
2022-10-09T11:54:37.988Z,76096.09
2022-10-09T11:56:23.753Z,76105.97
2022-10-09T11:58:18.797Z,76100.06
2022-10-09T12:00:05.943Z,76102.03
2022-10-09T12:01:45.322Z,76119.81
2022-10-09T12:03:40.612Z,76107.97
2022-10-09T12:05:35.290Z,76109.94
2022-10-09T12:07:10.141Z,76115.88
2022-10-09T12:09:08.777Z,76113.91
2022-10-09T12:11:04.334Z,76117.84
2022-10-09T12:12:39.360Z,76133.66
2022-10-09T12:14:24.068Z,76137.63
2022-10-09T12:15:59.710Z,76135.63
2022-10-09T12:17:35.669Z,76141.56
2022-10-09T12:19:23.972Z,76151.47
2022-10-09T12:21:00.945Z,76157.38
2022-10-09T12:22:49.301Z,76159.38
2022-10-09T12:24:40.468Z,76185.06
2022-10-09T12:26:16.043Z,76204.84
2022-10-09T12:27:55.396Z,76210.78
2022-10-09T12:29:46.303Z,76212.75
2022-10-09T12:31:26.172Z,76222.63
2022-10-09T12:33:02.867Z,76222.63
2022-10-09T12:34:48.248Z,76276.03
2022-10-09T12:36:30.129Z,76226.59
2022-10-09T12:38:15.437Z,76232.53
2022-10-09T12:39:50.118Z,76234.50
2022-10-09T12:41:32.115Z,76260.22
2022-10-09T12:43:08.913Z,76262.19
2022-10-09T12:44:45.171Z,76268.13
2022-10-09T12:46:34.751Z,76272.06
2022-10-09T12:48:12.812Z,76287.88
2022-10-09T12:50:22.668Z,76299.75
2022-10-09T12:51:58.501Z,76311.63
2022-10-09T12:53:32.421Z,76331.38
2022-10-09T12:55:22.824Z,76343.25
2022-10-09T12:56:58.567Z,76353.13
2022-10-09T12:58:36.982Z,76368.94
2022-10-09T13:00:15.358Z,76386.75
2022-10-09T13:01:54.330Z,76453.97
2022-10-09T13:03:41.608Z,76404.53
2022-10-09T13:05:15.236Z,76412.44
2022-10-09T13:06:50.976Z,76414.44
2022-10-09T13:08:30.608Z,76426.28
2022-10-09T13:10:19.561Z,76432.22
2022-10-09T13:12:08.605Z,76434.19
2022-10-09T13:13:42.347Z,76442.13
2022-10-09T13:15:32.890Z,76446.06
2022-10-09T13:17:06.179Z,76452.00
2022-10-09T13:18:39.749Z,76452.00
2022-10-09T13:20:13.150Z,76461.88
2022-10-09T13:21:46.992Z,76465.84
2022-10-09T13:23:33.430Z,76469.78
2022-10-09T13:25:07.490Z,76548.88
2022-10-09T13:26:43.891Z,76481.66
2022-10-09T13:28:21.014Z,76515.28
2022-10-09T13:29:54.706Z,76487.59
2022-10-09T13:31:27.802Z,76483.63
2022-10-09T13:33:00.943Z,76493.53
2022-10-09T13:34:34.652Z,76497.47
2022-10-09T13:36:08.412Z,76507.38
2022-10-09T13:37:41.649Z,76519.22
2022-10-09T13:39:16.115Z,76527.13
2022-10-09T13:40:49.633Z,76560.75
2022-10-09T13:42:34.447Z,76544.94
2022-10-09T13:44:07.451Z,76560.75
2022-10-09T13:45:40.921Z,76570.63
2022-10-09T13:47:14.606Z,76574.59
2022-10-09T13:48:47.968Z,76590.41
2022-10-09T13:50:21.743Z,76592.41
2022-10-09T13:51:55.206Z,76612.16
2022-10-09T13:53:28.727Z,76612.16
2022-10-09T13:55:05.888Z,76616.13
2022-10-09T13:56:39.374Z,76629.97
2022-10-09T13:58:12.814Z,76643.81
2022-10-09T13:59:46.418Z,76643.81
2022-10-09T14:01:20.108Z,76649.75
2022-10-09T14:02:53.536Z,76657.66
2022-10-09T14:04:28.395Z,76671.50
2022-10-09T14:06:06.307Z,76677.41
2022-10-09T14:07:39.921Z,76691.25
2022-10-09T14:09:13.365Z,76695.22
2022-10-09T14:10:46.975Z,76699.19
2022-10-09T14:12:21.000Z,76695.22
2022-10-09T14:13:54.519Z,76711.03
2022-10-09T14:15:28.181Z,76732.78
2022-10-09T14:17:01.608Z,76715.00
2022-10-09T14:18:35.318Z,76722.91
2022-10-09T14:20:09.252Z,76730.81
2022-10-09T14:21:42.422Z,76730.81
2022-10-09T14:23:16.214Z,76736.75
2022-10-09T14:24:49.574Z,76746.63
2022-10-09T14:26:23.899Z,76744.66
2022-10-09T14:27:57.301Z,76742.69
2022-10-09T14:29:31.179Z,76746.63
2022-10-09T14:31:09.149Z,76746.63
2022-10-09T14:32:42.776Z,76750.59
2022-10-09T14:34:16.150Z,76756.53
2022-10-09T14:35:49.851Z,76764.44
2022-10-09T14:37:40.343Z,76766.41
2022-10-09T14:39:15.284Z,76778.28
2022-10-09T14:40:49.059Z,76782.22
2022-10-09T14:42:23.332Z,76784.22
2022-10-09T14:44:00.139Z,76792.13
2022-10-09T14:45:34.176Z,76802.00
2022-10-09T14:47:07.542Z,76805.97
2022-10-09T14:48:41.146Z,76815.84
2022-10-09T14:50:15.251Z,76821.78
2022-10-09T14:51:48.393Z,76829.69
2022-10-09T14:53:21.864Z,76845.50
2022-10-09T14:54:55.752Z,76891.00
2022-10-09T14:56:29.350Z,76849.47
2022-10-09T14:58:02.803Z,76873.19
2022-10-09T14:59:36.672Z,76861.34
2022-10-09T15:01:13.976Z,76869.25
2022-10-09T15:02:47.366Z,76873.19
2022-10-09T15:04:23.624Z,76887.03
2022-10-09T15:06:02.205Z,76889.00
2022-10-09T15:07:35.669Z,76916.69
2022-10-09T15:09:09.334Z,76900.88
2022-10-09T15:10:43.626Z,76904.84
2022-10-09T15:12:17.114Z,76912.75
2022-10-09T15:13:50.886Z,76910.75
2022-10-09T15:15:26.166Z,76916.69
2022-10-09T15:17:01.568Z,76922.63
2022-10-09T15:18:34.904Z,76926.59
2022-10-09T15:20:08.974Z,76932.53
2022-10-09T15:21:42.665Z,76940.44
2022-10-09T15:23:16.497Z,76940.44
2022-10-09T15:24:50.104Z,76940.44
2022-10-09T15:26:25.379Z,76948.34
2022-10-09T15:28:01.217Z,76944.38
2022-10-09T15:29:34.747Z,76946.38
2022-10-09T15:31:17.202Z,76944.38
2022-10-09T15:32:50.492Z,76948.34
2022-10-09T15:34:23.976Z,76948.34
2022-10-09T15:35:57.712Z,76954.28
2022-10-09T15:37:31.859Z,76960.22
2022-10-09T15:39:07.624Z,76956.25
2022-10-09T15:40:49.844Z,76958.22
2022-10-09T15:42:23.030Z,76964.16
2022-10-09T15:43:59.659Z,76966.13
2022-10-09T15:45:35.212Z,76974.06
2022-10-09T15:47:16.645Z,76978.00
2022-10-09T15:48:50.096Z,76979.97
2022-10-09T15:50:24.024Z,76989.88
2022-10-09T15:51:57.519Z,76991.84
2022-10-09T15:53:30.802Z,76999.75
2022-10-09T15:55:04.938Z,77007.66
2022-10-09T15:56:40.337Z,77061.06
2022-10-09T15:58:17.416Z,77031.41
2022-10-09T15:59:52.837Z,77027.44
2022-10-09T16:01:26.741Z,77039.31
2022-10-09T16:03:00.489Z,77055.13
2022-10-09T16:04:34.169Z,77065.03
2022-10-09T16:06:10.680Z,77068.97
2022-10-09T16:07:44.216Z,77067.00
2022-10-09T16:09:17.875Z,77076.88
2022-10-09T16:10:55.745Z,77082.81
2022-10-09T16:12:29.637Z,77080.84
2022-10-09T16:14:03.215Z,77090.72
2022-10-09T16:15:40.991Z,77090.72
2022-10-09T16:17:14.884Z,77102.59
2022-10-09T16:18:49.441Z,77130.28
2022-10-09T16:20:23.967Z,77108.53
2022-10-09T16:21:57.498Z,77116.44
2022-10-09T16:23:30.911Z,77118.41
2022-10-09T16:25:04.887Z,77124.34
2022-10-09T16:26:38.590Z,77124.34
2022-10-09T16:28:15.365Z,77122.38
2022-10-09T16:29:49.057Z,77130.28
2022-10-09T16:31:31.266Z,77138.19
2022-10-09T16:33:07.992Z,77148.09
2022-10-09T16:34:43.978Z,77148.09
2022-10-09T16:36:18.079Z,77150.06
2022-10-09T16:37:54.937Z,77159.94
2022-10-09T16:39:29.291Z,77161.94
2022-10-09T16:41:02.998Z,77165.88
2022-10-09T16:42:36.252Z,77169.84
2022-10-09T16:44:14.648Z,77177.75
2022-10-09T16:45:48.062Z,77181.69
2022-10-09T16:47:21.531Z,77189.59
2022-10-09T16:48:56.498Z,77197.53
2022-10-09T16:50:30.647Z,77203.47
2022-10-09T16:52:04.172Z,77207.41
2022-10-09T16:53:38.063Z,77213.34
2022-10-09T16:55:11.346Z,77211.38
2022-10-09T16:56:44.728Z,77205.44
2022-10-09T16:58:18.349Z,77215.31
2022-10-09T16:59:51.860Z,77221.25
2022-10-09T17:01:26.340Z,77326.06
2022-10-09T17:03:00.169Z,77221.25
2022-10-09T17:04:33.517Z,77217.31
2022-10-09T17:06:12.768Z,77217.31
2022-10-09T17:07:46.067Z,77229.16
2022-10-09T17:09:19.663Z,77233.13
2022-10-09T17:10:54.743Z,77237.06
2022-10-09T17:12:31.258Z,77246.97
2022-10-09T17:14:05.603Z,77248.94
2022-10-09T17:15:42.626Z,77254.88
2022-10-09T17:17:15.998Z,77266.75
2022-10-09T17:18:49.798Z,77262.78
2022-10-09T17:20:23.027Z,77266.75
2022-10-09T17:21:57.167Z,77272.69
2022-10-09T17:23:30.681Z,77272.69
2022-10-09T17:25:04.179Z,77274.66
2022-10-09T17:26:37.800Z,77280.59
2022-10-09T17:28:11.596Z,77290.47
2022-10-09T17:29:45.426Z,77288.50
2022-10-09T17:31:21.846Z,77296.41
2022-10-09T17:32:55.457Z,77308.28
2022-10-09T17:34:28.959Z,77300.38
2022-10-09T17:36:03.283Z,77308.28
2022-10-09T17:37:36.578Z,77306.28
2022-10-09T17:39:14.751Z,77308.28
2022-10-09T17:40:48.255Z,77312.22
2022-10-09T17:42:24.253Z,77314.22
2022-10-09T17:43:58.660Z,77316.19
2022-10-09T17:45:39.168Z,77314.22
2022-10-09T17:47:12.927Z,77320.13
2022-10-09T17:48:53.292Z,77316.19
2022-10-09T17:50:26.624Z,77318.16
2022-10-09T17:52:00.674Z,77320.13
2022-10-09T17:53:34.021Z,77324.09
2022-10-09T17:55:10.326Z,77324.09
2022-10-09T17:56:45.184Z,77326.06
2022-10-09T17:58:19.588Z,77322.13
2022-10-09T17:59:53.179Z,77335.97
2022-10-09T18:01:26.462Z,77334.00
2022-10-09T18:03:00.011Z,77355.75
2022-10-09T18:04:33.787Z,77335.97
2022-10-09T18:06:13.393Z,77335.97
2022-10-09T18:07:47.471Z,77341.91
2022-10-09T18:09:22.166Z,77349.81
2022-10-09T18:11:01.132Z,77349.81
2022-10-09T18:12:34.364Z,77345.84
2022-10-09T18:14:10.848Z,77355.75
2022-10-09T18:15:44.731Z,77359.69
2022-10-09T18:17:18.237Z,77369.59
2022-10-09T18:18:52.005Z,77373.53
2022-10-09T18:20:25.450Z,77377.50
2022-10-09T18:22:01.264Z,77373.53
2022-10-09T18:23:34.838Z,77379.47
2022-10-09T18:25:11.085Z,77385.41
2022-10-09T18:26:47.866Z,77387.38
2022-10-09T18:28:21.399Z,77397.28
2022-10-09T18:29:54.974Z,77403.22
2022-10-09T18:31:28.627Z,77411.13
2022-10-09T18:33:02.538Z,77413.09
2022-10-09T18:34:39.214Z,77419.03
2022-10-09T18:36:20.174Z,77409.13
2022-10-09T18:37:53.976Z,77498.16
2022-10-09T18:39:31.694Z,77413.09
2022-10-09T18:41:07.313Z,77409.13
2022-10-09T18:42:40.615Z,77415.06
2022-10-09T18:44:19.730Z,77424.97
2022-10-09T18:45:54.188Z,77426.94
2022-10-09T18:47:33.224Z,77428.91
2022-10-09T18:49:13.637Z,77434.84
2022-10-09T18:50:47.990Z,77430.91
2022-10-09T18:52:21.900Z,77434.84
2022-10-09T18:54:00.543Z,77442.75
2022-10-09T18:55:34.114Z,77450.69
2022-10-09T18:57:07.934Z,77452.66
2022-10-09T18:58:42.661Z,77454.63
2022-10-09T19:00:16.921Z,77466.50
2022-10-09T19:01:50.066Z,77521.88
2022-10-09T19:03:23.600Z,77462.53
2022-10-09T19:04:58.449Z,77472.44
2022-10-09T19:06:31.993Z,77478.38
2022-10-09T19:08:04.983Z,77478.38